createdAt,value
2019-03-28T00:03:32.163Z,10.70
2019-03-28T00:08:37.106Z,10.60
2019-03-28T00:13:41.956Z,10.60
2019-03-28T00:18:46.812Z,10.80
2019-03-28T00:24:09.590Z,10.80
2019-03-28T00:29:14.461Z,10.70
2019-03-28T00:34:19.314Z,10.60
2019-03-28T00:39:24.117Z,10.60
2019-03-28T00:44:28.931Z,10.60
2019-03-28T00:49:34.408Z,10.50
2019-03-28T00:54:39.133Z,10.40
2019-03-28T00:59:43.950Z,10.50
2019-03-28T01:04:59.088Z,10.50
2019-03-28T01:10:03.968Z,10.60
2019-03-28T01:15:09.184Z,10.50
2019-03-28T01:20:14.285Z,10.50
2019-03-28T01:25:19.115Z,10.70
2019-03-28T01:30:24.351Z,10.60
2019-03-28T01:35:29.117Z,10.50
2019-03-28T01:40:33.863Z,10.50
2019-03-28T01:45:38.636Z,10.50
2019-03-28T01:50:43.480Z,10.60
2019-03-28T01:55:48.331Z,10.60
2019-03-28T02:00:53.199Z,10.60
2019-03-28T02:05:58.053Z,10.60
2019-03-28T02:11:03.094Z,10.50
2019-03-28T02:16:07.839Z,10.50
2019-03-28T02:21:12.644Z,10.60
2019-03-28T02:26:17.504Z,10.60
2019-03-28T02:31:22.345Z,10.50
2019-03-28T02:36:27.167Z,10.40
2019-03-28T02:41:32.015Z,10.40
2019-03-28T02:46:36.864Z,10.40
2019-03-28T02:51:41.783Z,10.30
2019-03-28T02:56:46.721Z,10.30
2019-03-28T03:01:51.614Z,10.30
2019-03-28T03:06:56.437Z,10.40
2019-03-28T03:12:01.550Z,10.40
2019-03-28T03:17:06.750Z,10.30
2019-03-28T03:22:11.632Z,10.20
2019-03-28T03:27:16.480Z,10.30
2019-03-28T03:32:21.591Z,10.30
2019-03-28T03:37:26.461Z,10.30
2019-03-28T03:42:31.285Z,10.10
2019-03-28T03:47:36.189Z,10.10
2019-03-28T03:52:41.605Z,10.30
2019-03-28T03:57:46.588Z,10.30
2019-03-28T04:02:51.497Z,10.40
2019-03-28T04:07:56.557Z,10.20
2019-03-28T04:13:01.476Z,10.20
2019-03-28T04:18:06.361Z,10.20
2019-03-28T04:23:11.282Z,10.00
2019-03-28T04:28:30.714Z,10.20
2019-03-28T04:33:22.633Z,10.10
2019-03-28T04:38:27.540Z,10.10
2019-03-28T04:43:32.385Z,10.10
2019-03-28T04:48:37.169Z,10.00
2019-03-28T04:53:42.029Z,9.90
2019-03-28T04:58:46.904Z,10.00
2019-03-28T05:03:51.796Z,9.90
2019-03-28T05:08:56.737Z,9.90
2019-03-28T05:14:01.565Z,10.00
2019-03-28T05:19:06.495Z,10.10
2019-03-28T05:24:11.614Z,10.10
2019-03-28T05:29:16.369Z,10.00
2019-03-28T05:34:21.168Z,10.00
2019-03-28T05:39:25.930Z,10.00
2019-03-28T05:44:30.767Z,10.10
2019-03-28T05:49:36.508Z,10.10
2019-03-28T05:54:41.432Z,10.20
2019-03-28T05:59:46.275Z,10.20
2019-03-28T06:04:51.117Z,10.40
2019-03-28T06:09:55.984Z,10.40
2019-03-28T06:15:00.846Z,10.50
2019-03-28T06:20:07.908Z,10.50
2019-03-28T06:25:12.748Z,10.60
2019-03-28T06:30:18.429Z,10.90
2019-03-28T06:35:23.420Z,11.00
2019-03-28T06:40:28.250Z,11.40
2019-03-28T06:45:33.541Z,12.00
2019-03-28T06:50:38.717Z,12.60
2019-03-28T06:55:43.584Z,12.60
2019-03-28T07:00:48.448Z,12.30
2019-03-28T07:05:53.337Z,12.20
2019-03-28T07:16:03.172Z,12.10
2019-03-28T07:21:08.092Z,11.90
2019-03-28T07:26:12.943Z,11.80
2019-03-28T07:31:17.851Z,11.80
2019-03-28T07:36:22.697Z,11.90
2019-03-28T07:41:27.508Z,12.20
2019-03-28T08:41:00.471Z,24.90
2019-03-28T08:50:20.950Z,26.30
2019-03-28T08:55:25.794Z,25.20
2019-03-28T09:00:35.083Z,26.00
2019-03-28T09:05:37.161Z,27.40
2019-03-28T09:10:42.048Z,27.20
2019-03-28T09:15:46.891Z,27.70
2019-03-28T09:20:51.764Z,28.20
2019-03-28T09:36:04.479Z,27.80
2019-03-28T09:41:09.378Z,27.60
2019-03-28T09:46:14.193Z,27.50
2019-03-28T09:51:19.096Z,28.00
2019-03-28T09:56:23.951Z,27.50
2019-03-28T10:01:29.007Z,25.60
2019-03-28T10:06:33.810Z,25.50
2019-03-28T10:11:38.703Z,25.90
2019-03-28T10:16:43.535Z,26.80
2019-03-28T10:21:48.383Z,26.00
2019-03-28T10:26:53.197Z,24.30
2019-03-28T10:31:57.991Z,22.80
2019-03-28T10:37:04.020Z,24.10
2019-03-28T10:42:09.859Z,23.00
2019-03-28T10:47:14.853Z,23.10
2019-03-28T10:52:19.579Z,23.00
2019-03-28T10:57:32.036Z,22.60
2019-03-28T11:02:33.904Z,20.90
2019-03-28T11:07:38.699Z,19.10
2019-03-28T11:12:43.500Z,19.00
2019-03-28T11:17:48.256Z,18.00
2019-03-28T11:31:55.963Z,16.80
2019-03-28T11:37:00.822Z,16.30
2019-03-28T11:42:05.675Z,16.70
2019-03-28T11:47:10.612Z,16.80
2019-03-28T11:52:15.534Z,17.20
2019-03-28T11:57:20.382Z,16.60
2019-03-28T12:02:25.457Z,16.00
2019-03-28T12:07:34.024Z,15.70
2019-03-28T12:13:08.587Z,15.70
2019-03-28T12:18:13.448Z,15.70
2019-03-28T12:23:18.315Z,15.60
2019-03-28T12:28:23.150Z,15.50
2019-03-28T12:33:27.981Z,15.70
2019-03-28T12:38:32.826Z,15.80
2019-03-28T12:43:39.131Z,16.00
2019-03-28T12:48:44.081Z,16.10
2019-03-28T12:53:48.950Z,15.80
2019-03-28T12:58:53.745Z,15.50
2019-03-28T13:03:59.013Z,15.20
2019-03-28T13:09:06.012Z,15.30
2019-03-28T13:14:10.962Z,15.50
2019-03-28T13:19:15.863Z,15.60
2019-03-28T13:24:20.655Z,15.50
2019-03-28T13:29:25.522Z,15.50
2019-03-28T13:34:30.265Z,15.50
2019-03-28T13:39:35.022Z,15.10
2019-03-28T13:44:39.759Z,15.00
2019-03-28T13:49:44.576Z,15.30
2019-03-28T13:54:49.834Z,15.50
2019-03-28T13:59:55.937Z,15.50
2019-03-28T14:05:00.657Z,15.40
2019-03-28T14:10:06.257Z,15.40
2019-03-28T14:15:11.006Z,15.40
2019-03-28T14:20:16.279Z,15.60
2019-03-28T14:25:21.062Z,16.00
2019-03-28T14:30:25.812Z,16.20
2019-03-28T14:35:30.557Z,16.10
2019-03-28T14:40:35.659Z,15.90
2019-03-28T14:45:40.405Z,16.00
2019-03-28T14:50:45.340Z,15.60
2019-03-28T14:55:50.650Z,15.30
2019-03-28T15:00:55.444Z,15.20
2019-03-28T15:06:00.252Z,15.20
2019-03-28T15:11:05.044Z,15.10
2019-03-28T15:16:09.788Z,15.20
2019-03-28T15:21:14.561Z,15.10
2019-03-28T15:26:22.132Z,15.00
2019-03-28T15:31:27.444Z,15.00
2019-03-28T15:40:36.063Z,15.10
2019-03-28T15:45:40.891Z,15.20
2019-03-28T15:50:45.832Z,15.30
2019-03-28T15:55:50.694Z,15.40
2019-03-28T16:00:55.554Z,15.50
2019-03-28T16:06:00.303Z,15.40
2019-03-28T16:11:05.649Z,15.30
2019-03-28T16:16:10.452Z,15.20
2019-03-28T16:21:15.301Z,15.10
2019-03-28T16:26:21.153Z,14.90
2019-03-28T16:31:26.323Z,14.70
2019-03-28T16:36:31.113Z,14.60
2019-03-28T16:41:35.963Z,14.50
2019-03-28T16:46:40.865Z,14.30
2019-03-28T16:54:27.966Z,14.40
2019-03-28T16:59:32.940Z,14.40
2019-03-28T17:04:38.297Z,14.30
2019-03-28T17:09:43.426Z,14.30
2019-03-28T17:14:48.247Z,14.30
2019-03-28T17:19:53.149Z,14.20
2019-03-28T17:24:58.071Z,14.30
2019-03-28T17:30:07.222Z,14.10
2019-03-28T17:35:13.036Z,14.20
2019-03-28T17:40:17.969Z,14.00
2019-03-28T17:45:22.793Z,14.00
2019-03-28T17:50:27.997Z,14.00
2019-03-28T17:55:32.858Z,14.00
2019-03-28T18:00:38.084Z,13.90
2019-03-28T18:05:43.029Z,14.00
2019-03-28T18:10:48.007Z,13.90
2019-03-28T18:15:52.766Z,14.00
2019-03-28T18:20:57.691Z,14.00
2019-03-28T18:26:02.571Z,13.90
2019-03-28T18:31:07.369Z,14.00
2019-03-28T18:36:12.198Z,14.00
2019-03-28T18:41:17.036Z,14.00
2019-03-28T18:46:21.754Z,13.80
2019-03-28T18:51:26.531Z,13.70
2019-03-28T18:56:31.380Z,13.70
2019-03-28T19:01:36.178Z,13.70
2019-03-28T19:06:41.048Z,13.70
2019-03-28T19:11:45.803Z,13.60
2019-03-28T19:16:52.328Z,13.60
2019-03-28T19:21:57.615Z,13.60
2019-03-28T19:27:02.471Z,13.60
2019-03-28T19:32:07.320Z,13.60
2019-03-28T19:37:12.685Z,13.60
2019-03-28T19:42:22.469Z,13.60
2019-03-28T19:47:28.520Z,13.70
2019-03-28T19:52:32.708Z,13.80
2019-03-28T19:57:38.806Z,13.70
2019-03-28T20:02:43.584Z,13.60
2019-03-28T20:07:48.467Z,13.40
2019-03-28T20:12:53.407Z,13.30
2019-03-28T20:17:58.303Z,13.40
2019-03-28T20:23:03.124Z,13.40
2019-03-28T20:28:07.938Z,13.40
2019-03-28T20:33:12.683Z,13.40
2019-03-28T20:38:18.116Z,13.60
2019-03-28T20:43:22.948Z,13.40
2019-03-28T20:48:27.711Z,13.40
2019-03-28T20:53:32.531Z,13.40
2019-03-28T20:58:37.831Z,13.40
2019-03-28T21:03:42.904Z,13.40
2019-03-28T21:08:47.740Z,13.40
2019-03-28T21:13:52.652Z,13.40
2019-03-28T21:18:57.524Z,13.40
2019-03-28T21:24:02.291Z,13.40
2019-03-28T21:29:07.121Z,13.30
2019-03-28T21:34:11.968Z,13.30
2019-03-28T21:39:16.862Z,13.30
2019-03-28T21:44:22.887Z,13.20
2019-03-28T21:49:27.894Z,13.30
2019-03-28T21:54:32.607Z,13.30
2019-03-28T21:59:37.357Z,13.30
2019-03-28T22:04:42.130Z,13.20
2019-03-28T22:09:48.351Z,13.20
2019-03-28T22:14:53.124Z,13.20
2019-03-28T22:19:57.980Z,13.20
2019-03-28T22:25:02.761Z,13.10
2019-03-28T22:30:08.421Z,13.00
2019-03-28T22:35:13.180Z,13.10
2019-03-28T22:40:17.922Z,13.10
2019-03-28T22:45:22.738Z,13.10
2019-03-28T22:50:27.575Z,13.00
2019-03-28T22:55:32.345Z,13.00
2019-03-28T23:00:47.153Z,13.00
2019-03-28T23:05:51.924Z,12.90
2019-03-28T23:10:56.661Z,12.90
2019-03-28T23:16:02.910Z,12.80
2019-03-28T23:21:07.911Z,12.70
2019-03-28T23:26:12.768Z,12.70
2019-03-28T23:31:17.534Z,12.70
2019-03-28T23:36:22.274Z,12.80
2019-03-28T23:41:27.092Z,12.80
2019-03-28T23:46:31.971Z,12.70
2019-03-28T23:51:36.809Z,12.70
2019-03-28T23:56:41.549Z,12.80
